sensor_id;sensor_type;location;lat;lon;timestamp;temperature;humidity
22996;DHT22;11664;49.774;8.650;2023-05-25T00:01:23;11.20;99.90
22996;DHT22;11664;49.774;8.650;2023-05-25T00:03:48;11.10;99.90
22996;DHT22;11664;49.774;8.650;2023-05-25T00:06:17;11.10;99.90
22996;DHT22;11664;49.774;8.650;2023-05-25T00:08:42;11.00;99.90
22996;DHT22;11664;49.774;8.650;2023-05-25T00:11:08;11.00;99.90
22996;DHT22;11664;49.774;8.650;2023-05-25T00:13:33;10.90;99.90
22996;DHT22;11664;49.774;8.650;2023-05-25T00:15:59;10.90;99.90
22996;DHT22;11664;49.774;8.650;2023-05-25T00:18:24;10.80;99.90
22996;DHT22;11664;49.774;8.650;2023-05-25T00:20:51;10.90;99.90
22996;DHT22;11664;49.774;8.650;2023-05-25T00:23:19;10.80;99.90
22996;DHT22;11664;49.774;8.650;2023-05-25T00:25:45;10.70;99.90
22996;DHT22;11664;49.774;8.650;2023-05-25T00:28:11;10.60;99.90
22996;DHT22;11664;49.774;8.650;2023-05-25T00:30:37;10.60;99.90
22996;DHT22;11664;49.774;8.650;2023-05-25T00:33:03;10.40;99.90
22996;DHT22;11664;49.774;8.650;2023-05-25T00:35:28;10.40;99.90
22996;DHT22;11664;49.774;8.650;2023-05-25T00:37:54;10.30;99.90
22996;DHT22;11664;49.774;8.650;2023-05-25T00:40:19;10.20;99.90
22996;DHT22;11664;49.774;8.650;2023-05-25T00:42:46;10.30;99.90
22996;DHT22;11664;49.774;8.650;2023-05-25T00:45:11;10.20;99.90
22996;DHT22;11664;49.774;8.650;2023-05-25T00:47:38;10.20;99.90
22996;DHT22;11664;49.774;8.650;2023-05-25T00:50:07;10.30;99.90
22996;DHT22;11664;49.774;8.650;2023-05-25T00:52:33;10.30;99.90
22996;DHT22;11664;49.774;8.650;2023-05-25T00:54:59;10.40;99.90
22996;DHT22;11664;49.774;8.650;2023-05-25T00:57:27;10.30;99.90
22996;DHT22;11664;49.774;8.650;2023-05-25T00:59:54;10.40;99.90
22996;DHT22;11664;49.774;8.650;2023-05-25T01:02:22;10.40;99.90
22996;DHT22;11664;49.774;8.650;2023-05-25T01:04:52;10.50;99.90
22996;DHT22;11664;49.774;8.650;2023-05-25T01:07:21;10.50;99.90
22996;DHT22;11664;49.774;8.650;2023-05-25T01:09:51;10.40;99.90
22996;DHT22;11664;49.774;8.650;2023-05-25T01:12:19;10.40;99.90
22996;DHT22;11664;49.774;8.650;2023-05-25T01:14:47;10.50;99.90
22996;DHT22;11664;49.774;8.650;2023-05-25T01:17:14;10.50;99.90
22996;DHT22;11664;49.774;8.650;2023-05-25T01:19:40;10.40;99.90
22996;DHT22;11664;49.774;8.650;2023-05-25T01:22:20;10.40;99.90
22996;DHT22;11664;49.774;8.650;2023-05-25T01:24:52;10.40;99.90
22996;DHT22;11664;49.774;8.650;2023-05-25T01:27:24;10.40;99.90
22996;DHT22;11664;49.774;8.650;2023-05-25T01:29:55;10.40;99.90
22996;DHT22;11664;49.774;8.650;2023-05-25T01:32:22;10.40;99.90
22996;DHT22;11664;49.774;8.650;2023-05-25T01:34:49;10.30;99.90
22996;DHT22;11664;49.774;8.650;2023-05-25T01:37:17;10.30;99.90
22996;DHT22;11664;49.774;8.650;2023-05-25T01:39:43;10.30;99.90
22996;DHT22;11664;49.774;8.650;2023-05-25T01:42:09;10.20;99.90
22996;DHT22;11664;49.774;8.650;2023-05-25T01:44:36;10.20;99.90
22996;DHT22;11664;49.774;8.650;2023-05-25T01:47:15;10.20;99.90
22996;DHT22;11664;49.774;8.650;2023-05-25T01:52:27;10.10;99.90
22996;DHT22;11664;49.774;8.650;2023-05-25T01:55:07;10.10;99.90
22996;DHT22;11664;49.774;8.650;2023-05-25T01:57:36;10.10;99.90
22996;DHT22;11664;49.774;8.650;2023-05-25T02:00:03;10.10;99.90
22996;DHT22;11664;49.774;8.650;2023-05-25T02:02:30;10.00;99.90
22996;DHT22;11664;49.774;8.650;2023-05-25T02:04:57;10.00;99.90
22996;DHT22;11664;49.774;8.650;2023-05-25T02:07:23;10.00;99.90
22996;DHT22;11664;49.774;8.650;2023-05-25T02:09:49;9.90;99.90
22996;DHT22;11664;49.774;8.650;2023-05-25T02:12:15;9.90;99.90
22996;DHT22;11664;49.774;8.650;2023-05-25T02:14:41;9.90;99.90
22996;DHT22;11664;49.774;8.650;2023-05-25T02:17:07;9.80;99.90
22996;DHT22;11664;49.774;8.650;2023-05-25T02:19:32;9.80;99.90
22996;DHT22;11664;49.774;8.650;2023-05-25T02:21:58;9.80;99.90
22996;DHT22;11664;49.774;8.650;2023-05-25T02:24:23;9.80;99.90
22996;DHT22;11664;49.774;8.650;2023-05-25T02:26:49;9.80;99.90
22996;DHT22;11664;49.774;8.650;2023-05-25T02:29:15;9.80;99.90
22996;DHT22;11664;49.774;8.650;2023-05-25T02:31:41;9.80;99.90
22996;DHT22;11664;49.774;8.650;2023-05-25T02:34:07;9.70;99.90
22996;DHT22;11664;49.774;8.650;2023-05-25T02:36:33;9.70;99.90
22996;DHT22;11664;49.774;8.650;2023-05-25T02:38:59;9.70;99.90
22996;DHT22;11664;49.774;8.650;2023-05-25T02:41:25;9.70;99.90
22996;DHT22;11664;49.774;8.650;2023-05-25T02:43:51;9.70;99.90
22996;DHT22;11664;49.774;8.650;2023-05-25T02:46:17;9.70;99.90
22996;DHT22;11664;49.774;8.650;2023-05-25T02:48:43;9.70;99.90
22996;DHT22;11664;49.774;8.650;2023-05-25T02:51:09;9.60;99.90
22996;DHT22;11664;49.774;8.650;2023-05-25T02:53:35;9.60;99.90
22996;DHT22;11664;49.774;8.650;2023-05-25T02:56:01;9.60;99.90
22996;DHT22;11664;49.774;8.650;2023-05-25T02:58:28;9.50;99.90
22996;DHT22;11664;49.774;8.650;2023-05-25T03:00:54;9.60;99.90
22996;DHT22;11664;49.774;8.650;2023-05-25T03:03:19;9.50;99.90
22996;DHT22;11664;49.774;8.650;2023-05-25T03:05:45;9.50;99.90
22996;DHT22;11664;49.774;8.650;2023-05-25T03:08:10;9.40;99.90
22996;DHT22;11664;49.774;8.650;2023-05-25T03:10:36;9.40;99.90
22996;DHT22;11664;49.774;8.650;2023-05-25T03:13:01;9.40;99.90
22996;DHT22;11664;49.774;8.650;2023-05-25T03:15:27;9.30;99.90
22996;DHT22;11664;49.774;8.650;2023-05-25T03:17:52;9.20;99.90
22996;DHT22;11664;49.774;8.650;2023-05-25T03:20:21;9.20;99.90
22996;DHT22;11664;49.774;8.650;2023-05-25T03:22:48;9.20;99.90
22996;DHT22;11664;49.774;8.650;2023-05-25T03:25:14;9.20;99.90
22996;DHT22;11664;49.774;8.650;2023-05-25T03:27:40;9.20;99.90
22996;DHT22;11664;49.774;8.650;2023-05-25T03:30:06;9.10;99.90
22996;DHT22;11664;49.774;8.650;2023-05-25T03:32:32;9.00;99.90
22996;DHT22;11664;49.774;8.650;2023-05-25T03:34:58;8.90;99.90
22996;DHT22;11664;49.774;8.650;2023-05-25T03:37:23;8.80;99.90
22996;DHT22;11664;49.774;8.650;2023-05-25T03:39:49;8.90;99.90
22996;DHT22;11664;49.774;8.650;2023-05-25T03:42:14;8.80;99.90
22996;DHT22;11664;49.774;8.650;2023-05-25T03:44:40;8.90;99.90
22996;DHT22;11664;49.774;8.650;2023-05-25T03:47:05;8.90;99.90
22996;DHT22;11664;49.774;8.650;2023-05-25T03:49:31;8.80;99.90
22996;DHT22;11664;49.774;8.650;2023-05-25T03:51:57;8.80;99.90
22996;DHT22;11664;49.774;8.650;2023-05-25T03:54:24;8.80;99.90
22996;DHT22;11664;49.774;8.650;2023-05-25T03:56:50;8.70;99.90
22996;DHT22;11664;49.774;8.650;2023-05-25T03:59:15;8.70;99.90
22996;DHT22;11664;49.774;8.650;2023-05-25T04:01:41;8.60;99.90
22996;DHT22;11664;49.774;8.650;2023-05-25T04:04:07;8.70;99.90
22996;DHT22;11664;49.774;8.650;2023-05-25T04:06:32;8.70;99.90
22996;DHT22;11664;49.774;8.650;2023-05-25T04:09:02;8.60;99.90
22996;DHT22;11664;49.774;8.650;2023-05-25T04:11:29;8.70;99.90
22996;DHT22;11664;49.774;8.650;2023-05-25T04:13:54;8.70;99.90
22996;DHT22;11664;49.774;8.650;2023-05-25T04:16:20;8.80;99.90
22996;DHT22;11664;49.774;8.650;2023-05-25T04:18:46;8.80;99.90
22996;DHT22;11664;49.774;8.650;2023-05-25T04:21:11;8.90;99.90
22996;DHT22;11664;49.774;8.650;2023-05-25T04:23:37;8.90;99.90
22996;DHT22;11664;49.774;8.650;2023-05-25T04:26:02;9.00;99.90
22996;DHT22;11664;49.774;8.650;2023-05-25T04:28:30;9.10;99.90
22996;DHT22;11664;49.774;8.650;2023-05-25T04:30:56;9.10;99.90
22996;DHT22;11664;49.774;8.650;2023-05-25T04:33:22;9.10;99.90
22996;DHT22;11664;49.774;8.650;2023-05-25T04:35:49;9.10;99.90
22996;DHT22;11664;49.774;8.650;2023-05-25T04:38:15;9.00;99.90
22996;DHT22;11664;49.774;8.650;2023-05-25T04:40:44;9.00;99.90
22996;DHT22;11664;49.774;8.650;2023-05-25T04:43:12;9.00;99.90
22996;DHT22;11664;49.774;8.650;2023-05-25T04:45:42;9.00;99.90
22996;DHT22;11664;49.774;8.650;2023-05-25T04:48:08;9.00;99.90
22996;DHT22;11664;49.774;8.650;2023-05-25T04:50:33;9.00;99.90
22996;DHT22;11664;49.774;8.650;2023-05-25T04:52:59;9.00;99.90
22996;DHT22;11664;49.774;8.650;2023-05-25T04:55:24;9.00;99.90
22996;DHT22;11664;49.774;8.650;2023-05-25T04:57:50;9.00;99.90
22996;DHT22;11664;49.774;8.650;2023-05-25T05:00:18;9.00;99.90
22996;DHT22;11664;49.774;8.650;2023-05-25T05:02:44;8.90;99.90
22996;DHT22;11664;49.774;8.650;2023-05-25T05:05:10;8.90;99.90
22996;DHT22;11664;49.774;8.650;2023-05-25T05:07:36;8.90;99.90
22996;DHT22;11664;49.774;8.650;2023-05-25T05:10:02;8.90;99.90
22996;DHT22;11664;49.774;8.650;2023-05-25T05:12:28;8.90;99.90
22996;DHT22;11664;49.774;8.650;2023-05-25T05:14:54;8.90;99.90
22996;DHT22;11664;49.774;8.650;2023-05-25T05:17:20;8.90;99.90
22996;DHT22;11664;49.774;8.650;2023-05-25T05:19:47;9.00;99.90
22996;DHT22;11664;49.774;8.650;2023-05-25T05:22:12;9.10;99.90
22996;DHT22;11664;49.774;8.650;2023-05-25T05:24:40;9.10;99.90
22996;DHT22;11664;49.774;8.650;2023-05-25T05:27:06;9.20;99.90
22996;DHT22;11664;49.774;8.650;2023-05-25T05:29:31;9.30;99.90
22996;DHT22;11664;49.774;8.650;2023-05-25T05:31:59;9.40;99.90
22996;DHT22;11664;49.774;8.650;2023-05-25T05:34:24;9.50;99.90
22996;DHT22;11664;49.774;8.650;2023-05-25T05:36:50;9.60;99.90
22996;DHT22;11664;49.774;8.650;2023-05-25T05:39:16;9.70;99.90
22996;DHT22;11664;49.774;8.650;2023-05-25T05:41:41;9.80;99.90
22996;DHT22;11664;49.774;8.650;2023-05-25T05:44:10;10.00;99.90
22996;DHT22;11664;49.774;8.650;2023-05-25T05:46:38;10.10;99.90
22996;DHT22;11664;49.774;8.650;2023-05-25T05:49:04;10.30;99.90
22996;DHT22;11664;49.774;8.650;2023-05-25T05:51:30;10.30;99.90
22996;DHT22;11664;49.774;8.650;2023-05-25T05:53:56;10.40;99.90
22996;DHT22;11664;49.774;8.650;2023-05-25T05:56:21;10.50;99.90
22996;DHT22;11664;49.774;8.650;2023-05-25T05:58:47;10.50;99.90
22996;DHT22;11664;49.774;8.650;2023-05-25T06:01:14;10.60;99.90
22996;DHT22;11664;49.774;8.650;2023-05-25T06:03:42;10.70;99.90
22996;DHT22;11664;49.774;8.650;2023-05-25T06:06:08;10.80;99.90
22996;DHT22;11664;49.774;8.650;2023-05-25T06:08:34;10.80;99.90
22996;DHT22;11664;49.774;8.650;2023-05-25T06:10:59;10.90;99.90
22996;DHT22;11664;49.774;8.650;2023-05-25T06:13:25;11.00;99.90
22996;DHT22;11664;49.774;8.650;2023-05-25T06:15:50;11.10;99.90
22996;DHT22;11664;49.774;8.650;2023-05-25T06:18:16;11.20;99.90
22996;DHT22;11664;49.774;8.650;2023-05-25T06:20:41;11.40;99.90
22996;DHT22;11664;49.774;8.650;2023-05-25T06:23:07;11.40;99.90
22996;DHT22;11664;49.774;8.650;2023-05-25T06:25:35;11.50;99.90
22996;DHT22;11664;49.774;8.650;2023-05-25T06:28:01;11.60;99.90
22996;DHT22;11664;49.774;8.650;2023-05-25T06:30:26;11.70;99.90
22996;DHT22;11664;49.774;8.650;2023-05-25T06:32:52;11.80;99.90
22996;DHT22;11664;49.774;8.650;2023-05-25T06:35:17;11.90;99.90
22996;DHT22;11664;49.774;8.650;2023-05-25T06:37:46;11.90;99.90
22996;DHT22;11664;49.774;8.650;2023-05-25T06:40:13;12.10;99.90
22996;DHT22;11664;49.774;8.650;2023-05-25T06:42:39;12.10;99.90
22996;DHT22;11664;49.774;8.650;2023-05-25T06:45:06;12.20;99.90
22996;DHT22;11664;49.774;8.650;2023-05-25T06:47:34;12.20;99.90
22996;DHT22;11664;49.774;8.650;2023-05-25T06:50:00;12.30;99.90
22996;DHT22;11664;49.774;8.650;2023-05-25T06:52:26;12.40;99.90
22996;DHT22;11664;49.774;8.650;2023-05-25T06:54:56;12.50;99.90
22996;DHT22;11664;49.774;8.650;2023-05-25T06:57:22;12.50;99.90
22996;DHT22;11664;49.774;8.650;2023-05-25T06:59:48;12.60;99.90
22996;DHT22;11664;49.774;8.650;2023-05-25T07:02:13;12.70;99.90
22996;DHT22;11664;49.774;8.650;2023-05-25T07:04:39;12.70;99.90
22996;DHT22;11664;49.774;8.650;2023-05-25T07:07:04;12.80;99.90
22996;DHT22;11664;49.774;8.650;2023-05-25T07:09:31;12.90;99.90
22996;DHT22;11664;49.774;8.650;2023-05-25T07:11:56;13.00;99.90
22996;DHT22;11664;49.774;8.650;2023-05-25T07:14:22;13.10;99.90
22996;DHT22;11664;49.774;8.650;2023-05-25T07:16:47;13.20;99.90
22996;DHT22;11664;49.774;8.650;2023-05-25T07:19:13;13.30;99.90
22996;DHT22;11664;49.774;8.650;2023-05-25T07:21:38;13.40;99.90
22996;DHT22;11664;49.774;8.650;2023-05-25T07:24:04;13.40;99.90
22996;DHT22;11664;49.774;8.650;2023-05-25T07:26:30;13.40;99.90
22996;DHT22;11664;49.774;8.650;2023-05-25T07:28:56;13.50;99.90
22996;DHT22;11664;49.774;8.650;2023-05-25T07:31:22;13.60;99.90
22996;DHT22;11664;49.774;8.650;2023-05-25T07:33:48;13.70;99.90
22996;DHT22;11664;49.774;8.650;2023-05-25T07:36:13;13.80;99.90
22996;DHT22;11664;49.774;8.650;2023-05-25T07:38:39;13.90;99.90
22996;DHT22;11664;49.774;8.650;2023-05-25T07:41:05;14.00;99.90
22996;DHT22;11664;49.774;8.650;2023-05-25T07:43:30;14.10;99.90
22996;DHT22;11664;49.774;8.650;2023-05-25T07:45:56;14.10;99.90
22996;DHT22;11664;49.774;8.650;2023-05-25T07:48:22;14.20;99.90
22996;DHT22;11664;49.774;8.650;2023-05-25T07:50:47;14.20;99.90
22996;DHT22;11664;49.774;8.650;2023-05-25T07:53:13;14.30;99.90
22996;DHT22;11664;49.774;8.650;2023-05-25T07:55:38;14.40;99.90
22996;DHT22;11664;49.774;8.650;2023-05-25T07:58:04;14.50;99.90
22996;DHT22;11664;49.774;8.650;2023-05-25T08:00:32;14.50;99.90
22996;DHT22;11664;49.774;8.650;2023-05-25T08:02:57;14.60;99.90
22996;DHT22;11664;49.774;8.650;2023-05-25T08:05:23;14.60;99.90
22996;DHT22;11664;49.774;8.650;2023-05-25T08:07:49;14.70;99.90
22996;DHT22;11664;49.774;8.650;2023-05-25T08:10:14;14.90;99.90
22996;DHT22;11664;49.774;8.650;2023-05-25T08:12:40;14.90;99.90
22996;DHT22;11664;49.774;8.650;2023-05-25T08:15:06;14.90;99.90
22996;DHT22;11664;49.774;8.650;2023-05-25T08:17:32;15.00;99.90
22996;DHT22;11664;49.774;8.650;2023-05-25T08:19:57;15.20;99.90
22996;DHT22;11664;49.774;8.650;2023-05-25T08:22:23;15.20;99.90
22996;DHT22;11664;49.774;8.650;2023-05-25T08:24:48;15.20;99.90
22996;DHT22;11664;49.774;8.650;2023-05-25T08:27:14;15.20;99.90
22996;DHT22;11664;49.774;8.650;2023-05-25T08:29:41;15.40;99.90
22996;DHT22;11664;49.774;8.650;2023-05-25T08:32:07;15.50;99.90
22996;DHT22;11664;49.774;8.650;2023-05-25T08:34:32;15.50;99.90
22996;DHT22;11664;49.774;8.650;2023-05-25T08:36:58;15.60;99.90
22996;DHT22;11664;49.774;8.650;2023-05-25T08:39:24;15.70;99.90
22996;DHT22;11664;49.774;8.650;2023-05-25T08:41:50;15.80;99.90
22996;DHT22;11664;49.774;8.650;2023-05-25T08:44:16;15.80;99.90
22996;DHT22;11664;49.774;8.650;2023-05-25T08:46:42;15.80;99.90
22996;DHT22;11664;49.774;8.650;2023-05-25T08:49:09;15.80;99.90
22996;DHT22;11664;49.774;8.650;2023-05-25T08:51:41;15.90;99.90
22996;DHT22;11664;49.774;8.650;2023-05-25T08:54:08;15.90;99.90
22996;DHT22;11664;49.774;8.650;2023-05-25T08:57:08;16.00;99.90
22996;DHT22;11664;49.774;8.650;2023-05-25T08:59:45;16.00;99.90
22996;DHT22;11664;49.774;8.650;2023-05-25T09:02:24;16.20;99.90
22996;DHT22;11664;49.774;8.650;2023-05-25T09:04:51;16.20;99.90
22996;DHT22;11664;49.774;8.650;2023-05-25T09:07:17;16.50;99.90
22996;DHT22;11664;49.774;8.650;2023-05-25T09:09:44;16.70;99.90
22996;DHT22;11664;49.774;8.650;2023-05-25T09:12:11;16.60;99.90
22996;DHT22;11664;49.774;8.650;2023-05-25T09:14:36;16.70;99.90
22996;DHT22;11664;49.774;8.650;2023-05-25T09:17:10;16.80;99.90
22996;DHT22;11664;49.774;8.650;2023-05-25T09:19:35;17.00;99.90
22996;DHT22;11664;49.774;8.650;2023-05-25T09:22:01;16.90;99.90
22996;DHT22;11664;49.774;8.650;2023-05-25T09:24:27;17.10;99.90
22996;DHT22;11664;49.774;8.650;2023-05-25T09:26:53;17.30;99.90
22996;DHT22;11664;49.774;8.650;2023-05-25T09:29:18;17.60;99.90
22996;DHT22;11664;49.774;8.650;2023-05-25T09:31:44;17.70;99.90
22996;DHT22;11664;49.774;8.650;2023-05-25T09:34:11;17.50;99.90
22996;DHT22;11664;49.774;8.650;2023-05-25T09:36:37;17.70;99.90
22996;DHT22;11664;49.774;8.650;2023-05-25T09:39:08;17.70;99.90
22996;DHT22;11664;49.774;8.650;2023-05-25T09:41:33;18.00;99.90
22996;DHT22;11664;49.774;8.650;2023-05-25T09:44:00;18.30;99.90
22996;DHT22;11664;49.774;8.650;2023-05-25T09:46:26;18.10;99.90
22996;DHT22;11664;49.774;8.650;2023-05-25T09:48:53;18.40;99.90
22996;DHT22;11664;49.774;8.650;2023-05-25T09:51:19;18.60;99.90
22996;DHT22;11664;49.774;8.650;2023-05-25T09:53:46;18.60;99.90
22996;DHT22;11664;49.774;8.650;2023-05-25T09:56:12;18.80;99.90
22996;DHT22;11664;49.774;8.650;2023-05-25T09:58:37;19.00;99.90
22996;DHT22;11664;49.774;8.650;2023-05-25T10:01:03;19.10;99.90
22996;DHT22;11664;49.774;8.650;2023-05-25T10:03:29;19.00;99.90
22996;DHT22;11664;49.774;8.650;2023-05-25T10:05:55;18.80;99.90
22996;DHT22;11664;49.774;8.650;2023-05-25T10:08:22;18.70;99.90
22996;DHT22;11664;49.774;8.650;2023-05-25T10:10:49;18.80;99.90
22996;DHT22;11664;49.774;8.650;2023-05-25T10:13:19;19.20;99.90
22996;DHT22;11664;49.774;8.650;2023-05-25T10:15:46;19.20;99.90
22996;DHT22;11664;49.774;8.650;2023-05-25T10:18:13;19.20;99.90
22996;DHT22;11664;49.774;8.650;2023-05-25T10:20:41;19.20;99.90
22996;DHT22;11664;49.774;8.650;2023-05-25T10:23:12;19.00;99.90
22996;DHT22;11664;49.774;8.650;2023-05-25T10:25:42;19.40;99.90
22996;DHT22;11664;49.774;8.650;2023-05-25T10:28:28;19.40;98.50
22996;DHT22;11664;49.774;8.650;2023-05-25T10:30:56;19.50;99.30
22996;DHT22;11664;49.774;8.650;2023-05-25T10:33:23;19.70;99.90
22996;DHT22;11664;49.774;8.650;2023-05-25T10:35:49;20.30;99.70
22996;DHT22;11664;49.774;8.650;2023-05-25T10:38:16;20.70;99.70
22996;DHT22;11664;49.774;8.650;2023-05-25T10:40:43;20.80;99.20
22996;DHT22;11664;49.774;8.650;2023-05-25T10:43:12;20.60;97.10
22996;DHT22;11664;49.774;8.650;2023-05-25T10:45:38;21.00;99.50
22996;DHT22;11664;49.774;8.650;2023-05-25T10:48:06;21.30;98.10
22996;DHT22;11664;49.774;8.650;2023-05-25T10:50:34;21.60;96.60
22996;DHT22;11664;49.774;8.650;2023-05-25T10:53:13;21.80;93.80
22996;DHT22;11664;49.774;8.650;2023-05-25T10:58:17;22.10;93.80
22996;DHT22;11664;49.774;8.650;2023-05-25T11:01:02;22.40;93.20
22996;DHT22;11664;49.774;8.650;2023-05-25T11:06:08;22.30;91.20
22996;DHT22;11664;49.774;8.650;2023-05-25T11:08:58;21.80;91.10
22996;DHT22;11664;49.774;8.650;2023-05-25T11:14:32;21.70;90.50
22996;DHT22;11664;49.774;8.650;2023-05-25T11:17:14;22.50;92.20
22996;DHT22;11664;49.774;8.650;2023-05-25T11:19:43;22.80;90.20
22996;DHT22;11664;49.774;8.650;2023-05-25T11:22:16;22.10;85.20
22996;DHT22;11664;49.774;8.650;2023-05-25T11:24:45;22.30;88.20
22996;DHT22;11664;49.774;8.650;2023-05-25T11:27:11;22.00;85.80
22996;DHT22;11664;49.774;8.650;2023-05-25T11:29:37;22.30;88.10
22996;DHT22;11664;49.774;8.650;2023-05-25T11:32:04;22.60;88.30
22996;DHT22;11664;49.774;8.650;2023-05-25T11:34:35;22.50;85.00
22996;DHT22;11664;49.774;8.650;2023-05-25T11:37:01;23.00;87.20
22996;DHT22;11664;49.774;8.650;2023-05-25T11:39:27;23.30;89.20
22996;DHT22;11664;49.774;8.650;2023-05-25T11:41:54;23.60;84.50
22996;DHT22;11664;49.774;8.650;2023-05-25T11:44:29;23.30;87.70
22996;DHT22;11664;49.774;8.650;2023-05-25T11:46:56;23.20;85.70
22996;DHT22;11664;49.774;8.650;2023-05-25T11:49:22;23.60;87.60
22996;DHT22;11664;49.774;8.650;2023-05-25T11:51:49;23.80;88.10
22996;DHT22;11664;49.774;8.650;2023-05-25T11:54:22;24.20;85.30
22996;DHT22;11664;49.774;8.650;2023-05-25T11:56:48;24.60;83.80
22996;DHT22;11664;49.774;8.650;2023-05-25T11:59:13;24.40;77.60
22996;DHT22;11664;49.774;8.650;2023-05-25T12:01:39;24.10;79.00
22996;DHT22;11664;49.774;8.650;2023-05-25T12:04:09;24.00;78.50
22996;DHT22;11664;49.774;8.650;2023-05-25T12:06:35;23.70;80.50
22996;DHT22;11664;49.774;8.650;2023-05-25T12:09:02;23.40;81.10
22996;DHT22;11664;49.774;8.650;2023-05-25T12:11:32;23.80;79.00
22996;DHT22;11664;49.774;8.650;2023-05-25T12:13:58;23.70;76.80
22996;DHT22;11664;49.774;8.650;2023-05-25T12:16:24;23.80;79.80
22996;DHT22;11664;49.774;8.650;2023-05-25T12:18:52;24.10;80.50
22996;DHT22;11664;49.774;8.650;2023-05-25T12:21:18;24.30;78.40
22996;DHT22;11664;49.774;8.650;2023-05-25T12:23:45;24.40;78.70
22996;DHT22;11664;49.774;8.650;2023-05-25T12:26:15;24.40;78.00
22996;DHT22;11664;49.774;8.650;2023-05-25T12:29:04;24.30;74.50
22996;DHT22;11664;49.774;8.650;2023-05-25T12:31:34;24.50;76.50
22996;DHT22;11664;49.774;8.650;2023-05-25T12:34:10;24.90;79.20
22996;DHT22;11664;49.774;8.650;2023-05-25T12:39:04;25.00;74.10
22996;DHT22;11664;49.774;8.650;2023-05-25T12:41:30;24.50;72.10
22996;DHT22;11664;49.774;8.650;2023-05-25T12:43:56;24.70;77.80
22996;DHT22;11664;49.774;8.650;2023-05-25T12:46:23;24.80;75.90
22996;DHT22;11664;49.774;8.650;2023-05-25T12:48:49;25.10;74.30
22996;DHT22;11664;49.774;8.650;2023-05-25T12:51:15;24.20;71.10
22996;DHT22;11664;49.774;8.650;2023-05-25T12:53:48;24.10;70.70
22996;DHT22;11664;49.774;8.650;2023-05-25T12:56:14;24.40;71.80
22996;DHT22;11664;49.774;8.650;2023-05-25T12:58:39;24.30;71.60
22996;DHT22;11664;49.774;8.650;2023-05-25T13:01:07;24.90;75.10
22996;DHT22;11664;49.774;8.650;2023-05-25T13:03:32;24.60;71.00
22996;DHT22;11664;49.774;8.650;2023-05-25T13:05:59;24.40;72.70
22996;DHT22;11664;49.774;8.650;2023-05-25T13:08:25;24.90;71.90
22996;DHT22;11664;49.774;8.650;2023-05-25T13:10:51;25.20;72.10
22996;DHT22;11664;49.774;8.650;2023-05-25T13:13:16;25.10;71.60
22996;DHT22;11664;49.774;8.650;2023-05-25T13:15:41;25.20;71.30
22996;DHT22;11664;49.774;8.650;2023-05-25T13:18:07;25.30;72.20
22996;DHT22;11664;49.774;8.650;2023-05-25T13:20:32;25.10;70.30
22996;DHT22;11664;49.774;8.650;2023-05-25T13:22:58;25.00;70.50
22996;DHT22;11664;49.774;8.650;2023-05-25T13:25:24;25.10;70.10
22996;DHT22;11664;49.774;8.650;2023-05-25T13:27:52;25.60;71.90
22996;DHT22;11664;49.774;8.650;2023-05-25T13:30:19;25.60;71.20
22996;DHT22;11664;49.774;8.650;2023-05-25T13:32:47;25.60;69.20
22996;DHT22;11664;49.774;8.650;2023-05-25T13:35:13;25.80;70.40
22996;DHT22;11664;49.774;8.650;2023-05-25T13:37:46;25.70;67.90
22996;DHT22;11664;49.774;8.650;2023-05-25T13:40:12;26.10;71.30
22996;DHT22;11664;49.774;8.650;2023-05-25T13:42:38;25.50;67.60
22996;DHT22;11664;49.774;8.650;2023-05-25T13:45:04;25.90;71.60
22996;DHT22;11664;49.774;8.650;2023-05-25T13:47:29;26.10;68.10
22996;DHT22;11664;49.774;8.650;2023-05-25T13:49:55;26.00;68.40
22996;DHT22;11664;49.774;8.650;2023-05-25T13:52:20;25.90;66.40
22996;DHT22;11664;49.774;8.650;2023-05-25T13:54:46;26.00;72.30
22996;DHT22;11664;49.774;8.650;2023-05-25T13:57:11;25.70;69.00
22996;DHT22;11664;49.774;8.650;2023-05-25T13:59:37;25.70;68.90
22996;DHT22;11664;49.774;8.650;2023-05-25T14:02:03;26.10;71.00
22996;DHT22;11664;49.774;8.650;2023-05-25T14:04:29;26.70;71.30
22996;DHT22;11664;49.774;8.650;2023-05-25T14:06:54;26.10;67.00
22996;DHT22;11664;49.774;8.650;2023-05-25T14:09:21;26.00;67.50
22996;DHT22;11664;49.774;8.650;2023-05-25T14:11:47;25.60;65.90
22996;DHT22;11664;49.774;8.650;2023-05-25T14:14:12;25.50;67.80
22996;DHT22;11664;49.774;8.650;2023-05-25T14:16:38;26.10;69.80
22996;DHT22;11664;49.774;8.650;2023-05-25T14:19:03;25.70;66.00
22996;DHT22;11664;49.774;8.650;2023-05-25T14:21:30;26.30;67.00
22996;DHT22;11664;49.774;8.650;2023-05-25T14:23:56;26.60;64.40
22996;DHT22;11664;49.774;8.650;2023-05-25T14:26:22;26.80;66.60
22996;DHT22;11664;49.774;8.650;2023-05-25T14:28:47;26.90;67.60
22996;DHT22;11664;49.774;8.650;2023-05-25T14:31:13;26.70;65.30
22996;DHT22;11664;49.774;8.650;2023-05-25T14:33:38;26.60;66.90
22996;DHT22;11664;49.774;8.650;2023-05-25T14:36:04;26.90;66.80
22996;DHT22;11664;49.774;8.650;2023-05-25T14:38:30;26.60;64.70
22996;DHT22;11664;49.774;8.650;2023-05-25T14:40:57;26.80;67.30
22996;DHT22;11664;49.774;8.650;2023-05-25T14:43:23;26.20;63.40
22996;DHT22;11664;49.774;8.650;2023-05-25T14:45:48;26.90;66.10
22996;DHT22;11664;49.774;8.650;2023-05-25T14:48:14;26.30;63.40
22996;DHT22;11664;49.774;8.650;2023-05-25T14:50:40;27.10;65.40
22996;DHT22;11664;49.774;8.650;2023-05-25T14:53:06;27.00;65.90
22996;DHT22;11664;49.774;8.650;2023-05-25T14:55:32;26.90;65.30
22996;DHT22;11664;49.774;8.650;2023-05-25T14:57:57;27.20;66.20
22996;DHT22;11664;49.774;8.650;2023-05-25T15:00:23;27.00;62.90
22996;DHT22;11664;49.774;8.650;2023-05-25T15:02:48;27.10;64.80
22996;DHT22;11664;49.774;8.650;2023-05-25T15:05:14;26.90;66.90
22996;DHT22;11664;49.774;8.650;2023-05-25T15:07:39;26.90;68.00
22996;DHT22;11664;49.774;8.650;2023-05-25T15:10:06;26.70;64.80
22996;DHT22;11664;49.774;8.650;2023-05-25T15:12:31;26.60;63.50
22996;DHT22;11664;49.774;8.650;2023-05-25T15:14:57;26.30;63.20
22996;DHT22;11664;49.774;8.650;2023-05-25T15:17:23;26.70;65.50
22996;DHT22;11664;49.774;8.650;2023-05-25T15:19:48;26.50;65.70
22996;DHT22;11664;49.774;8.650;2023-05-25T15:22:14;27.00;67.10
22996;DHT22;11664;49.774;8.650;2023-05-25T15:24:39;26.50;70.80
22996;DHT22;11664;49.774;8.650;2023-05-25T15:27:05;26.30;71.00
22996;DHT22;11664;49.774;8.650;2023-05-25T15:29:30;26.50;72.10
22996;DHT22;11664;49.774;8.650;2023-05-25T15:31:56;26.00;72.00
22996;DHT22;11664;49.774;8.650;2023-05-25T15:34:21;25.70;72.60
22996;DHT22;11664;49.774;8.650;2023-05-25T15:36:47;25.90;72.90
22996;DHT22;11664;49.774;8.650;2023-05-25T15:39:12;26.60;74.90
22996;DHT22;11664;49.774;8.650;2023-05-25T15:41:39;26.20;72.20
22996;DHT22;11664;49.774;8.650;2023-05-25T15:44:05;25.90;72.40
22996;DHT22;11664;49.774;8.650;2023-05-25T15:46:32;25.60;72.70